Weather History for Cody, WY

Change the Weather History Date:

Wednesday, May 22, 2013

  Actual Average Record
Temperature  
Mean Temperature 50 °F -  
Max Temperature 60 °F 68 °F 88 °F (1919)
Min Temperature 39 °F 43 °F 27 °F (1918)
Degree Days  
Heating Degree Days 16    
Moisture  
Dew Point 42 °F    
Average Humidity 71    
Maximum Humidity 94    
Minimum Humidity 51    
Precipitation  
Precipitation 0.09 in - - ()
Sea Level Pressure  
Sea Level Pressure 29.88 in    
Wind  
Wind Speed 7 mph (NNE)    
Max Wind Speed 13 mph    
Max Gust Speed 16 mph    
Visibility 10 miles    
Events Thunderstorm    
Averages and records for this station are not official NWS values.
T = Trace of Precipitation, MM = Missing Value Source: NWS Daily Summary

Daily Weather History Graph

Daily Weather History Graph

Search for Another Location

Airport:

Trip Planner

Search our weather history database for the weather conditions in past years. The results will help you decide how hot, cold, wet, or windy it might be!

Date:

Astronomy

May. 22, 2013 Rise Set
Actual Time 5:41 AM MDT 8:44 PM MDT
Civil Twilight 5:06 AM MDT 9:19 PM MDT
Nautical Twilight 4:21 AM MDT 10:04 PM MDT
Astronomical Twilight 3:28 AM MDT 10:58 PM MDT
Moon 6:05 PM MDT (5/22) 3:54 AM MDT (5/22)
Length of Visible Light 16h 13m
Length of Day
15h 03m
Waxing Gibbous, 92% of the Moon is Illuminated
May 22
Waxing Gibbous
May 24
Full
May 31
Last Quarter
Jun 8
New
Jun 16
First Quarter

Hourly Weather History & Observations

Time (MDT) Temp. Windchill Dew Point Humidity Pressure Visibility Wind Dir Wind Speed Gust Speed Precip Events Conditions
12:35 AM 48.2 °F - 37.4 °F 66% 29.92 in 10.0 mi NE 6.9 mph - N/A   Clear
12:55 AM 46.4 °F 42.9 °F 37.4 °F 71% 29.92 in 10.0 mi NE 6.9 mph - N/A   Clear
1:15 AM 46.4 °F 42.4 °F 37.4 °F 71% 29.92 in 10.0 mi NE 8.1 mph - N/A   Clear
1:35 AM 46.4 °F 42.4 °F 37.4 °F 71% 29.92 in 10.0 mi NE 8.1 mph - N/A   Clear
1:55 AM 44.6 °F 40.2 °F 37.4 °F 76% 29.92 in 10.0 mi NE 8.1 mph - N/A   Clear
2:15 AM 44.6 °F 40.2 °F 39.2 °F 81% 29.92 in 10.0 mi NE 8.1 mph - N/A   Clear
2:35 AM 42.8 °F 37.5 °F 37.4 °F 81% 29.92 in 10.0 mi NE 9.2 mph - N/A   Clear
2:55 AM 42.8 °F 36.6 °F 37.4 °F 81% 29.92 in 10.0 mi NE 11.5 mph - N/A   Clear
3:15 AM 42.8 °F 36.6 °F 37.4 °F 81% 29.92 in 10.0 mi NE 11.5 mph - N/A   Clear
3:55 AM 41.0 °F 35.2 °F 37.4 °F 87% 29.92 in 10.0 mi NNE 9.2 mph - N/A   Clear
4:15 AM 41.0 °F 36.4 °F 37.4 °F 87% 29.92 in 10.0 mi NNE 6.9 mph - N/A   Clear
4:35 AM 39.2 °F 35.9 °F 37.4 °F 93% 29.92 in 10.0 mi NNE 4.6 mph - N/A   Clear
4:55 AM 39.2 °F 37.0 °F 37.4 °F 93% 29.92 in 10.0 mi ENE 3.5 mph - N/A   Clear
5:15 AM 39.2 °F - 37.4 °F 93% 29.92 in 10.0 mi Calm Calm - N/A   Clear
5:35 AM 39.2 °F 37.0 °F 37.4 °F 93% 29.91 in 10.0 mi South 3.5 mph - N/A   Clear
5:55 AM 39.2 °F 35.9 °F 37.4 °F 93% 29.92 in 10.0 mi SSE 4.6 mph - N/A   Partly Cloudy
6:15 AM 39.2 °F 35.9 °F 37.4 °F 93% 29.91 in 10.0 mi SSE 4.6 mph - N/A   Partly Cloudy
6:35 AM 41.0 °F 38.0 °F 37.4 °F 87% 29.90 in 10.0 mi SE 4.6 mph - N/A   Clear
6:55 AM 42.8 °F 40.1 °F 39.2 °F 87% 29.90 in 10.0 mi South 4.6 mph - N/A   Clear
7:15 AM 44.6 °F 42.2 °F 39.2 °F 81% 29.90 in 10.0 mi SSW 4.6 mph - N/A   Clear
7:35 AM 44.6 °F - 39.2 °F 81% 29.90 in 10.0 mi Calm Calm - N/A   Clear
7:55 AM 46.4 °F - 41.0 °F 81% 29.90 in 10.0 mi Calm Calm - N/A   Clear
8:15 AM 48.2 °F - 39.2 °F 71% 29.90 in 10.0 mi Calm Calm - N/A   Partly Cloudy
8:35 AM 48.2 °F - 39.2 °F 71% 29.90 in 10.0 mi Calm Calm - N/A   Clear
8:55 AM 51.8 °F - 39.2 °F 62% 29.89 in 10.0 mi Calm Calm - N/A   Clear
9:15 AM 51.8 °F - 39.2 °F 62% 29.89 in 10.0 mi Calm Calm - N/A   Clear
9:35 AM 51.8 °F - 42.8 °F 71% 29.89 in 10.0 mi North 5.8 mph - N/A   Clear
9:56 AM 53.6 °F - 41.0 °F 62% 29.89 in 10.0 mi NNE 6.9 mph - N/A   Clear
10:15 AM 53.6 °F - 39.2 °F 58% 29.89 in 10.0 mi NE 4.6 mph - N/A   Clear
10:35 AM 55.4 °F - 39.2 °F 54% 29.89 in 10.0 mi NE 8.1 mph - N/A   Clear
10:55 AM 55.4 °F - 37.4 °F 51% 29.89 in 10.0 mi ENE 6.9 mph - N/A   Clear
11:16 AM 57.2 °F - 41.0 °F 55% 29.89 in 10.0 mi East 9.2 mph - N/A   Clear
11:35 AM 57.2 °F - 42.8 °F 59% 29.89 in 10.0 mi ENE 6.9 mph - N/A   Clear
11:55 AM 57.2 °F - 42.8 °F 59% 29.88 in 10.0 mi NE 9.2 mph - N/A   Clear
12:15 PM 57.2 °F - 42.8 °F 59% 29.88 in 10.0 mi North 9.2 mph - N/A   Clear
12:35 PM 57.2 °F - 44.6 °F 63% 29.87 in 10.0 mi NE 8.1 mph - N/A   Clear
12:55 PM 59.0 °F - 44.6 °F 59% 29.87 in 10.0 mi NNE 8.1 mph - N/A   Clear
1:15 PM 57.2 °F - 44.6 °F 63% 29.87 in 10.0 mi NNE 9.2 mph 16.1 mph N/A   Clear
1:35 PM 57.2 °F - 44.6 °F 63% 29.87 in 10.0 mi North 9.2 mph - N/A   Clear
1:55 PM 59.0 °F - 44.6 °F 59% 29.86 in 10.0 mi NNE 8.1 mph - N/A   Clear
2:15 PM 59.0 °F - 42.8 °F 55% 29.86 in 10.0 mi North 9.2 mph - N/A   Clear
2:35 PM 59.0 °F - 42.8 °F 55% 29.86 in 10.0 mi NNE 9.2 mph - N/A   Clear
2:55 PM 59.0 °F - 42.8 °F 55% 29.84 in 10.0 mi NNE 9.2 mph - N/A   Clear
3:15 PM 59.0 °F - 44.6 °F 59% 29.84 in 10.0 mi North 10.4 mph - N/A   Clear
3:35 PM 60.8 °F - 44.6 °F 55% 29.84 in 10.0 mi NNE 9.2 mph - N/A   Clear
3:55 PM 59.0 °F - 44.6 °F 59% 29.83 in 10.0 mi NNW 11.5 mph 16.1 mph N/A   Clear
4:15 PM 60.8 °F - 44.6 °F 55% 29.83 in 10.0 mi North 12.7 mph - N/A   Clear
4:55 PM 59.0 °F - 44.6 °F 59% 29.83 in 10.0 mi North 10.4 mph - N/A   Clear
5:15 PM 59.0 °F - 42.8 °F 55% 29.82 in 10.0 mi North 12.7 mph - N/A   Clear
6:15 PM 59.0 °F - 44.6 °F 59% 29.82 in 10.0 mi NW 9.2 mph - N/A   Mostly Cloudy
6:35 PM 59.0 °F - 42.8 °F 55% 29.82 in 10.0 mi WNW 8.1 mph - N/A   Overcast
6:55 PM 59.0 °F - 42.8 °F 55% 29.82 in 10.0 mi WNW 6.9 mph - N/A   Overcast
7:15 PM 59.0 °F - 42.8 °F 55% 29.85 in 10.0 mi West 4.6 mph - N/A Thunderstorm Overcast
7:35 PM 55.4 °F - 48.2 °F 77% 29.85 in 10.0 mi NW 9.2 mph - N/A   Overcast
8:15 PM 53.6 °F - 48.2 °F 82% 29.89 in 9.0 mi Calm Calm - N/A   Overcast
8:55 PM 51.8 °F - 48.2 °F 88% 29.89 in 10.0 mi NNW 6.9 mph - N/A   Overcast
9:55 PM 51.8 °F - 48.2 °F 88% 29.90 in 10.0 mi West 4.6 mph - 0.06 in   Overcast
10:35 PM 51.8 °F - 48.2 °F 88% 29.90 in 10.0 mi West 6.9 mph - 0.02 in   Overcast
10:55 PM 51.8 °F - 48.2 °F 88% 29.89 in 10.0 mi West 3.5 mph - 0.02 in   Overcast
11:15 PM 51.8 °F - 50.0 °F 94% 29.89 in 10.0 mi Calm Calm - 0.01 in   Overcast
11:55 PM 51.8 °F - 50.0 °F 94% 29.88 in 10.0 mi Calm Calm - 0.01 in   Mostly Cloudy